createdAt,value
2023-04-11T00:00:41.398Z,12.90
2023-04-11T00:01:41.536Z,12.86
2023-04-11T00:02:41.690Z,12.82
2023-04-11T00:03:41.701Z,12.79
2023-04-11T00:04:41.495Z,12.75
2023-04-11T00:05:41.364Z,12.72
2023-04-11T00:06:41.307Z,12.70
2023-04-11T00:07:41.346Z,12.67
2023-04-11T00:08:41.284Z,12.64
2023-04-11T00:09:41.316Z,12.64
2023-04-11T00:10:41.728Z,12.62
2023-04-11T00:11:41.267Z,12.60
2023-04-11T00:12:41.250Z,12.59
2023-04-11T00:13:41.238Z,12.57
2023-04-11T00:14:41.201Z,12.56
2023-04-11T00:15:41.235Z,12.53
2023-04-11T00:16:41.248Z,12.52
2023-04-11T00:17:41.214Z,12.53
2023-04-11T00:18:41.184Z,12.52
2023-04-11T00:19:41.166Z,12.49
2023-04-11T00:20:41.137Z,12.46
2023-04-11T00:21:41.148Z,12.42
2023-04-11T00:22:41.107Z,12.42
2023-04-11T00:23:41.127Z,12.41
2023-04-11T00:24:41.080Z,12.42
2023-04-11T00:25:41.098Z,12.41
2023-04-11T00:26:41.043Z,12.37
2023-04-11T00:27:41.069Z,12.38
2023-04-11T00:28:41.014Z,12.37
2023-04-11T00:29:41.050Z,12.37
2023-04-11T00:30:41.012Z,12.37
2023-04-11T00:31:41.098Z,12.37
2023-04-11T00:32:41.025Z,12.35
2023-04-11T00:33:41.205Z,12.32
2023-04-11T00:34:40.935Z,12.31
2023-04-11T00:35:41.030Z,12.28
2023-04-11T00:36:41.002Z,12.24
2023-04-11T00:37:40.909Z,12.23
2023-04-11T00:38:40.869Z,12.21
2023-04-11T00:39:40.904Z,12.21
2023-04-11T00:40:40.880Z,12.20
2023-04-11T00:41:40.892Z,12.20
2023-04-11T00:42:40.845Z,12.20
2023-04-11T00:43:40.830Z,12.20
2023-04-11T00:44:40.780Z,12.20
2023-04-11T00:45:40.994Z,12.21
2023-04-11T00:46:40.785Z,12.21
2023-04-11T00:47:40.791Z,12.21
2023-04-11T00:48:40.744Z,12.21
2023-04-11T00:49:40.746Z,12.21
2023-04-11T00:50:40.736Z,12.21
2023-04-11T00:51:40.736Z,12.20
2023-04-11T00:52:40.688Z,12.20
2023-04-11T00:53:40.712Z,12.20
2023-04-11T00:54:40.719Z,12.20
2023-04-11T00:55:40.683Z,12.20
2023-04-11T00:56:40.622Z,12.14
2023-04-11T00:57:40.637Z,12.05
2023-04-11T00:58:40.646Z,12.02
2023-04-11T00:59:40.626Z,12.01
2023-04-11T01:00:40.586Z,11.99
2023-04-11T01:01:40.628Z,11.95
2023-04-11T01:02:40.695Z,11.90
2023-04-11T01:03:40.640Z,11.83
2023-04-11T01:04:40.550Z,11.80
2023-04-11T01:05:40.509Z,11.76
2023-04-11T01:06:40.558Z,11.75
2023-04-11T01:07:40.515Z,11.73
2023-04-11T01:08:40.501Z,11.73
2023-04-11T01:09:40.482Z,11.75
2023-04-11T01:10:40.480Z,11.69
2023-04-11T01:11:40.427Z,11.67
2023-04-11T01:12:40.442Z,11.64
2023-04-11T01:13:40.430Z,11.60
2023-04-11T01:14:40.403Z,11.60
2023-04-11T01:15:40.414Z,11.54
2023-04-11T01:16:40.395Z,11.52
2023-04-11T01:17:40.383Z,11.51
2023-04-11T01:18:40.376Z,11.46
2023-04-11T01:19:40.335Z,11.39
2023-04-11T01:20:40.334Z,11.35
2023-04-11T01:21:40.286Z,11.33
2023-04-11T01:22:40.316Z,11.33
2023-04-11T01:23:40.300Z,11.32
2023-04-11T01:24:40.281Z,11.27
2023-04-11T01:25:40.258Z,11.21
2023-04-11T01:26:40.257Z,11.19
2023-04-11T01:27:40.213Z,11.15
2023-04-11T01:28:40.229Z,11.14
2023-04-11T01:29:40.208Z,11.14
2023-04-11T01:30:40.259Z,11.15
2023-04-11T01:31:40.153Z,11.11
2023-04-11T01:32:40.215Z,11.09
2023-04-11T01:33:40.158Z,11.11
2023-04-11T01:34:40.169Z,11.09
2023-04-11T01:35:40.144Z,11.07
2023-04-11T01:36:40.180Z,11.07
2023-04-11T01:37:40.106Z,11.06
2023-04-11T01:38:40.100Z,11.03
2023-04-11T01:39:40.048Z,11.02
2023-04-11T01:40:40.070Z,11.02
2023-04-11T01:41:40.053Z,11.00
2023-04-11T01:42:40.078Z,11.00
2023-04-11T01:43:40.004Z,10.99
2023-04-11T01:44:40.018Z,10.99
2023-04-11T01:45:39.968Z,11.00
2023-04-11T01:46:40.000Z,11.02
2023-04-11T01:47:39.984Z,11.03
2023-04-11T01:48:40.041Z,11.03
2023-04-11T01:49:39.918Z,11.06
2023-04-11T01:50:39.923Z,11.03
2023-04-11T01:51:39.893Z,11.04
2023-04-11T01:52:39.945Z,11.06
2023-04-11T01:53:39.881Z,11.10
2023-04-11T01:54:39.876Z,11.11
2023-04-11T01:55:39.830Z,11.15
2023-04-11T01:56:39.838Z,11.19
2023-04-11T01:57:39.838Z,11.19
2023-04-11T01:58:39.839Z,11.19
2023-04-11T01:59:39.773Z,11.10
2023-04-11T02:00:39.799Z,11.04
2023-04-11T02:01:39.811Z,10.99
2023-04-11T02:02:39.866Z,10.97
2023-04-11T02:03:39.834Z,10.97
2023-04-11T02:04:39.724Z,10.92
2023-04-11T02:05:39.796Z,10.88
2023-04-11T02:06:39.704Z,10.84
2023-04-11T02:07:39.673Z,10.81
2023-04-11T02:08:39.743Z,10.79
2023-04-11T02:09:39.656Z,10.78
2023-04-11T02:10:39.652Z,10.74
2023-04-11T02:11:39.629Z,10.73
2023-04-11T02:12:39.637Z,10.74
2023-04-11T02:13:39.611Z,10.76
2023-04-11T02:14:39.620Z,10.76
2023-04-11T02:15:39.586Z,10.76
2023-04-11T02:16:39.599Z,10.76
2023-04-11T02:17:39.596Z,10.74
2023-04-11T02:18:39.560Z,10.76
2023-04-11T02:19:39.505Z,10.76
2023-04-11T02:20:39.536Z,10.78
2023-04-11T02:21:39.499Z,10.79
2023-04-11T02:22:39.504Z,10.78
2023-04-11T02:23:39.482Z,10.76
2023-04-11T02:24:39.460Z,10.74
2023-04-11T02:25:39.429Z,10.73
2023-04-11T02:26:39.460Z,10.71
2023-04-11T02:27:39.427Z,10.73
2023-04-11T02:28:39.405Z,10.70
2023-04-11T02:29:39.408Z,10.70
2023-04-11T02:30:39.435Z,10.73
2023-04-11T02:31:39.414Z,10.74
2023-04-11T02:32:39.397Z,10.74
2023-04-11T02:33:39.328Z,10.74
2023-04-11T02:34:39.381Z,10.74
2023-04-11T02:35:39.320Z,10.74
2023-04-11T02:36:39.315Z,10.74
2023-04-11T02:37:39.271Z,10.73
2023-04-11T02:38:39.293Z,10.74
2023-04-11T02:39:39.241Z,10.74
2023-04-11T02:40:39.279Z,10.71
2023-04-11T02:41:39.201Z,10.73
2023-04-11T02:42:39.246Z,10.73
2023-04-11T02:43:39.210Z,10.71
2023-04-11T02:44:39.226Z,10.70
2023-04-11T02:45:39.188Z,10.74
2023-04-11T02:46:39.173Z,10.76
2023-04-11T02:47:39.174Z,10.79
2023-04-11T02:48:39.159Z,10.84
2023-04-11T02:49:39.112Z,10.86
2023-04-11T02:50:39.157Z,10.86
2023-04-11T02:51:39.124Z,10.85
2023-04-11T02:52:39.099Z,10.84
2023-04-11T02:53:39.061Z,10.84
2023-04-11T02:54:39.069Z,10.86
2023-04-11T02:55:39.022Z,10.86
2023-04-11T02:56:39.310Z,10.88
2023-04-11T02:57:39.008Z,10.86
2023-04-11T02:58:39.054Z,10.91
2023-04-11T02:59:38.995Z,10.89
2023-04-11T03:00:39.059Z,10.89
2023-04-11T03:01:39.198Z,10.89
2023-04-11T03:02:39.242Z,10.91
2023-04-11T03:03:39.029Z,10.89
2023-04-11T03:04:38.961Z,10.86
2023-04-11T03:05:38.910Z,10.86
2023-04-11T03:06:38.890Z,10.85
2023-04-11T03:07:38.889Z,10.88
2023-04-11T03:08:38.878Z,10.88
2023-04-11T03:09:38.855Z,10.92
2023-04-11T03:10:38.834Z,10.92
2023-04-11T03:11:38.842Z,10.89
2023-04-11T03:12:38.802Z,10.89
2023-04-11T03:13:38.829Z,10.92
2023-04-11T03:14:38.788Z,10.89
2023-04-11T03:15:38.811Z,10.86
2023-04-11T03:16:38.770Z,10.85
2023-04-11T03:17:38.781Z,10.85
2023-04-11T03:18:38.750Z,10.88
2023-04-11T03:19:38.738Z,10.86
2023-04-11T03:20:38.713Z,10.88
2023-04-11T03:21:38.710Z,10.89
2023-04-11T03:22:38.664Z,10.91
2023-04-11T03:23:38.742Z,10.91
2023-04-11T03:24:38.647Z,10.92
2023-04-11T03:25:38.667Z,10.91
2023-04-11T03:26:38.670Z,10.88
2023-04-11T03:27:38.629Z,10.85
2023-04-11T03:28:38.583Z,10.86
2023-04-11T03:29:38.647Z,10.84
2023-04-11T03:30:38.572Z,10.84
2023-04-11T03:31:38.619Z,10.79
2023-04-11T03:32:38.563Z,10.81
2023-04-11T03:33:38.568Z,10.76
2023-04-11T03:34:38.536Z,10.73
2023-04-11T03:35:38.540Z,10.73
2023-04-11T03:36:38.506Z,10.73
2023-04-11T03:37:38.515Z,10.71
2023-04-11T03:38:38.475Z,10.73
2023-04-11T03:39:38.487Z,10.73
2023-04-11T03:40:38.475Z,10.71
2023-04-11T03:41:38.437Z,10.73
2023-04-11T03:42:38.427Z,10.76
2023-04-11T03:43:38.406Z,10.76
2023-04-11T03:44:38.378Z,10.79
2023-04-11T03:45:38.409Z,10.78
2023-04-11T03:46:38.382Z,10.82
2023-04-11T03:47:38.427Z,10.79
2023-04-11T03:48:38.371Z,10.79
2023-04-11T03:49:38.395Z,10.81
2023-04-11T03:50:38.316Z,10.76
2023-04-11T03:51:38.316Z,10.76
2023-04-11T03:52:38.274Z,10.74
2023-04-11T03:53:38.300Z,10.73
2023-04-11T03:54:38.357Z,10.74
2023-04-11T03:55:38.256Z,10.74
2023-04-11T03:56:38.221Z,10.73
2023-04-11T03:57:38.227Z,10.71
2023-04-11T03:58:38.229Z,10.70
2023-04-11T03:59:38.227Z,10.70
2023-04-11T04:00:38.159Z,10.70
2023-04-11T04:01:38.363Z,10.67
2023-04-11T04:02:38.242Z,10.64
2023-04-11T04:03:38.509Z,10.63
2023-04-11T04:04:38.191Z,10.63
2023-04-11T04:05:38.106Z,10.59
2023-04-11T04:06:38.100Z,10.59
2023-04-11T04:07:38.106Z,10.56
2023-04-11T04:08:38.052Z,10.59
2023-04-11T04:09:38.110Z,10.60
2023-04-11T04:10:38.039Z,10.64
2023-04-11T04:11:38.041Z,10.66
2023-04-11T04:12:38.022Z,10.66
2023-04-11T04:13:38.012Z,10.68
2023-04-11T04:14:37.969Z,10.68
2023-04-11T04:15:38.004Z,10.70
2023-04-11T04:16:37.969Z,10.70
2023-04-11T04:17:38.006Z,10.68
2023-04-11T04:18:37.940Z,10.64
2023-04-11T04:19:37.932Z,10.63
2023-04-11T04:20:37.912Z,10.63
2023-04-11T04:21:37.913Z,10.66
2023-04-11T04:22:37.877Z,10.63
2023-04-11T04:23:37.901Z,10.61
2023-04-11T04:24:37.843Z,10.63
2023-04-11T04:25:37.856Z,10.64
2023-04-11T04:26:37.810Z,10.66
2023-04-11T04:27:37.818Z,10.66
2023-04-11T04:28:37.811Z,10.67
2023-04-11T04:29:37.831Z,10.67
2023-04-11T04:30:37.748Z,10.66
2023-04-11T04:31:37.855Z,10.66
2023-04-11T04:32:37.749Z,10.63
2023-04-11T04:33:37.766Z,10.61
2023-04-11T04:34:37.696Z,10.59
2023-04-11T04:35:37.747Z,10.55
2023-04-11T04:36:37.678Z,10.55
2023-04-11T04:37:37.693Z,10.51
2023-04-11T04:38:37.655Z,10.52
2023-04-11T04:39:37.708Z,10.53
2023-04-11T04:40:37.642Z,10.53
2023-04-11T04:41:37.644Z,10.52
2023-04-11T04:42:37.595Z,10.51
2023-04-11T04:43:37.618Z,10.51
2023-04-11T04:44:37.585Z,10.47
2023-04-11T04:45:37.684Z,10.47
2023-04-11T04:46:37.540Z,10.45
2023-04-11T04:47:37.624Z,10.38
2023-04-11T04:48:37.536Z,10.38
2023-04-11T04:49:37.541Z,10.38
2023-04-11T04:50:37.485Z,10.36
2023-04-11T04:51:37.508Z,10.34
2023-04-11T04:52:37.448Z,10.32
2023-04-11T04:53:37.483Z,10.29
2023-04-11T04:54:37.473Z,10.26
2023-04-11T04:55:37.472Z,10.20
2023-04-11T04:56:37.432Z,10.17
2023-04-11T04:57:37.417Z,10.14
2023-04-11T04:58:37.380Z,10.12
2023-04-11T04:59:37.396Z,10.09
2023-04-11T05:00:37.386Z,10.04
2023-04-11T05:01:37.448Z,10.01
2023-04-11T05:02:37.442Z,9.99
2023-04-11T05:03:37.568Z,9.96
2023-04-11T05:04:37.305Z,9.96
2023-04-11T05:05:37.343Z,9.93
2023-04-11T05:06:37.286Z,9.91
2023-04-11T05:07:37.288Z,9.91
2023-04-11T05:08:37.292Z,9.89
2023-04-11T05:09:37.256Z,9.90
2023-04-11T05:10:37.220Z,9.89
2023-04-11T05:11:37.225Z,9.86
2023-04-11T05:12:37.188Z,9.87
2023-04-11T05:13:37.249Z,9.89
2023-04-11T05:14:37.172Z,9.89
2023-04-11T05:15:37.181Z,9.90
2023-04-11T05:16:37.191Z,9.89
2023-04-11T05:17:37.167Z,9.93
2023-04-11T05:18:37.116Z,9.93
2023-04-11T05:19:37.128Z,9.93
2023-04-11T05:20:37.107Z,9.90
2023-04-11T05:21:37.126Z,9.91
2023-04-11T05:22:37.071Z,9.91
2023-04-11T05:23:37.079Z,9.90
2023-04-11T05:24:37.029Z,9.91
2023-04-11T05:25:37.073Z,9.93
2023-04-11T05:26:37.000Z,9.93
2023-04-11T05:27:37.097Z,9.93
2023-04-11T05:28:36.985Z,9.96
2023-04-11T05:29:37.007Z,9.97
2023-04-11T05:30:36.989Z,9.99
2023-04-11T05:31:36.981Z,9.97
2023-04-11T05:32:37.001Z,9.97
2023-04-11T05:33:36.956Z,9.99
2023-04-11T05:34:36.898Z,10.01
2023-04-11T05:35:36.962Z,9.97
2023-04-11T05:36:36.911Z,9.99
2023-04-11T05:37:36.880Z,9.97
2023-04-11T05:38:36.838Z,9.97
2023-04-11T05:39:36.881Z,9.99
2023-04-11T05:40:36.823Z,9.97
2023-04-11T05:41:36.840Z,9.97
2023-04-11T05:42:36.811Z,9.96
2023-04-11T05:43:36.811Z,9.94
2023-04-11T05:44:36.791Z,9.94
2023-04-11T05:45:36.819Z,9.94
2023-04-11T05:46:36.997Z,9.96
2023-04-11T05:47:36.782Z,9.94
2023-04-11T05:48:36.718Z,9.97
2023-04-11T05:49:36.758Z,9.99
2023-04-11T05:50:36.711Z,9.97
2023-04-11T05:51:36.692Z,9.97
2023-04-11T05:52:36.662Z,9.96
2023-04-11T05:53:36.701Z,9.96
2023-04-11T05:54:36.644Z,9.99
2023-04-11T05:55:36.644Z,9.99
2023-04-11T05:56:36.611Z,10.02
2023-04-11T05:57:36.623Z,10.01
2023-04-11T05:58:36.590Z,10.01
2023-04-11T05:59:36.635Z,9.99
2023-04-11T06:00:36.550Z,9.97
2023-04-11T06:01:36.625Z,9.97
2023-04-11T06:02:36.613Z,9.96
2023-04-11T06:03:36.753Z,9.97
2023-04-11T06:04:36.713Z,9.94
2023-04-11T06:05:36.507Z,9.96
2023-04-11T06:06:36.504Z,9.97
2023-04-11T06:07:36.496Z,9.96
2023-04-11T06:08:36.462Z,9.97
2023-04-11T06:09:36.525Z,9.97
2023-04-11T06:10:36.426Z,9.99
2023-04-11T06:11:36.454Z,9.99
2023-04-11T06:12:36.407Z,9.99
2023-04-11T06:13:36.424Z,10.02
2023-04-11T06:14:38.762Z,10.02
2023-04-11T06:15:36.446Z,10.02
2023-04-11T06:16:36.339Z,10.02
2023-04-11T06:17:36.413Z,10.05
2023-04-11T06:18:36.317Z,10.04
2023-04-11T06:19:36.352Z,10.04
2023-04-11T06:20:36.291Z,10.02
2023-04-11T06:21:36.294Z,10.04
2023-04-11T06:22:36.370Z,10.04
2023-04-11T06:23:36.297Z,10.04
2023-04-11T06:24:36.248Z,10.04
2023-04-11T06:25:36.248Z,10.07
2023-04-11T06:26:36.218Z,10.05
2023-04-11T06:27:36.217Z,10.09
2023-04-11T06:28:36.199Z,10.09
2023-04-11T06:29:36.194Z,10.11
2023-04-11T06:30:36.170Z,10.11
2023-04-11T06:31:36.214Z,10.09
2023-04-11T06:32:36.139Z,10.12
2023-04-11T06:33:36.167Z,10.11
2023-04-11T06:34:36.122Z,10.12
2023-04-11T06:35:36.183Z,10.12
2023-04-11T06:36:36.090Z,10.15
2023-04-11T06:37:36.101Z,10.14
2023-04-11T06:38:36.054Z,10.15
2023-04-11T06:39:36.169Z,10.14
2023-04-11T06:40:36.026Z,10.15
2023-04-11T06:41:36.069Z,10.17
2023-04-11T06:42:36.009Z,10.15
2023-04-11T06:43:36.010Z,10.12
2023-04-11T06:44:36.033Z,10.11
2023-04-11T06:45:35.974Z,10.12
2023-04-11T06:46:35.991Z,10.12
2023-04-11T06:47:35.993Z,10.14
2023-04-11T06:48:35.945Z,10.15
2023-04-11T06:49:35.937Z,10.15
2023-04-11T06:50:35.915Z,10.17
2023-04-11T06:51:35.924Z,10.20
2023-04-11T06:52:35.877Z,10.20
2023-04-11T06:53:35.880Z,10.25
2023-04-11T06:54:35.844Z,10.27
2023-04-11T06:55:35.853Z,10.29
2023-04-11T06:56:35.833Z,10.32
2023-04-11T06:57:35.829Z,10.36
2023-04-11T06:58:35.841Z,10.42
2023-04-11T06:59:35.795Z,10.44
2023-04-11T07:00:35.765Z,10.47
2023-04-11T07:01:35.856Z,10.48
2023-04-11T07:02:36.073Z,10.52
2023-04-11T07:03:35.873Z,10.55
2023-04-11T07:04:35.815Z,10.60
2023-04-11T07:05:37.528Z,10.60
2023-04-11T07:06:35.680Z,10.63
2023-04-11T07:07:35.742Z,10.66
2023-04-11T07:08:35.673Z,10.70
2023-04-11T07:09:35.676Z,10.74
2023-04-11T07:10:35.626Z,10.78
2023-04-11T07:11:35.654Z,10.81
2023-04-11T07:12:35.619Z,10.81
2023-04-11T07:13:35.641Z,10.82
2023-04-11T07:14:35.579Z,10.84
2023-04-11T07:15:35.629Z,10.88
2023-04-11T07:16:35.579Z,10.94
2023-04-11T07:17:35.628Z,10.94
2023-04-11T07:18:35.523Z,10.94
2023-04-11T07:19:35.568Z,10.94
2023-04-11T07:20:35.512Z,10.96
2023-04-11T07:21:35.506Z,10.97
2023-04-11T07:22:35.474Z,10.99
2023-04-11T07:23:35.476Z,11.04
2023-04-11T07:24:35.484Z,11.09
2023-04-11T07:25:35.477Z,11.09
2023-04-11T07:26:35.442Z,11.19
2023-04-11T07:27:35.403Z,11.24
2023-04-11T07:28:35.412Z,11.32
2023-04-11T07:29:35.373Z,11.39
2023-04-11T07:30:35.427Z,11.39
2023-04-11T07:31:35.354Z,11.37
2023-04-11T07:32:35.411Z,11.36
2023-04-11T07:33:35.334Z,11.37
2023-04-11T07:34:35.402Z,11.37
2023-04-11T07:35:35.318Z,11.43
2023-04-11T07:36:35.342Z,11.46
2023-04-11T07:37:35.267Z,11.42
2023-04-11T07:38:35.289Z,11.40
2023-04-11T07:39:35.252Z,11.44
2023-04-11T07:40:35.262Z,11.54
2023-04-11T07:41:35.207Z,11.61
2023-04-11T07:42:35.237Z,11.69
2023-04-11T07:43:35.213Z,11.78
2023-04-11T07:44:35.198Z,11.83
2023-04-11T07:45:35.161Z,11.83
2023-04-11T07:46:35.208Z,11.73
2023-04-11T07:47:35.173Z,11.58
2023-04-11T07:48:35.119Z,11.51
2023-04-11T07:49:35.088Z,11.39
2023-04-11T07:50:35.105Z,11.33
2023-04-11T07:51:35.136Z,11.35
2023-04-11T07:52:35.067Z,11.40
2023-04-11T07:53:35.050Z,11.47
2023-04-11T07:54:35.057Z,11.49
2023-04-11T07:55:35.021Z,11.44
2023-04-11T07:56:35.066Z,11.46
2023-04-11T07:57:34.999Z,11.54
2023-04-11T07:58:35.010Z,11.61
2023-04-11T07:59:34.965Z,11.64
2023-04-11T08:00:34.976Z,11.65
2023-04-11T08:01:34.961Z,11.67
2023-04-11T08:02:35.127Z,11.69
2023-04-11T08:03:35.137Z,11.67
2023-04-11T08:04:35.028Z,11.69
2023-04-11T08:05:34.897Z,11.72
2023-04-11T08:06:34.914Z,11.73
2023-04-11T08:07:34.831Z,11.70
2023-04-11T08:08:34.875Z,11.69
2023-04-11T08:09:34.840Z,11.64
2023-04-11T08:10:34.844Z,11.64
2023-04-11T08:11:34.820Z,11.62
2023-04-11T08:12:34.852Z,11.62
2023-04-11T08:13:34.770Z,11.62
2023-04-11T08:14:34.792Z,11.62
2023-04-11T08:15:34.748Z,11.65
2023-04-11T08:16:34.847Z,11.70
2023-04-11T08:17:34.814Z,11.76
2023-04-11T08:18:34.764Z,11.79
2023-04-11T08:19:34.708Z,11.95
2023-04-11T08:20:34.726Z,12.02
2023-04-11T08:21:34.700Z,12.07
2023-04-11T08:22:34.740Z,12.04
2023-04-11T08:23:34.673Z,12.04
2023-04-11T08:24:34.816Z,12.02
2023-04-11T08:25:34.634Z,12.02
2023-04-11T08:26:34.661Z,12.05
2023-04-11T08:27:34.585Z,12.10
2023-04-11T08:28:34.621Z,12.10
2023-04-11T08:29:34.578Z,12.14
2023-04-11T08:30:34.655Z,12.17
2023-04-11T08:31:34.540Z,12.19
2023-04-11T08:32:34.575Z,12.28
2023-04-11T08:33:34.552Z,12.29
2023-04-11T08:34:34.509Z,12.28
2023-04-11T08:35:34.556Z,12.23
2023-04-11T08:36:34.489Z,12.19
2023-04-11T08:37:34.467Z,12.13
2023-04-11T08:38:34.487Z,12.05
2023-04-11T08:39:34.417Z,12.02
2023-04-11T08:40:34.441Z,11.98
2023-04-11T08:41:34.405Z,12.01
2023-04-11T08:42:34.436Z,12.05
2023-04-11T08:43:34.371Z,12.07
2023-04-11T08:44:34.393Z,12.12
2023-04-11T08:45:34.377Z,12.20
2023-04-11T08:46:34.470Z,12.21
2023-04-11T08:47:34.350Z,12.23
2023-04-11T08:48:34.351Z,12.32
2023-04-11T08:49:34.284Z,12.41
2023-04-11T08:50:34.294Z,12.50
2023-04-11T08:51:34.312Z,12.50
2023-04-11T08:52:34.279Z,12.57
2023-04-11T08:53:34.264Z,12.65
2023-04-11T08:54:34.262Z,12.68
2023-04-11T08:55:34.205Z,12.60
2023-04-11T08:56:34.236Z,12.54
2023-04-11T08:57:34.184Z,12.54
2023-04-11T08:58:34.233Z,12.56
2023-04-11T08:59:34.154Z,12.60
2023-04-11T09:00:34.268Z,12.65
2023-04-11T09:01:34.327Z,12.72
2023-04-11T09:02:34.286Z,12.83
2023-04-11T09:03:34.139Z,12.93
2023-04-11T09:04:34.106Z,12.97
2023-04-11T09:05:34.064Z,12.97
2023-04-11T09:06:34.085Z,12.86
2023-04-11T09:07:34.039Z,12.78
2023-04-11T09:08:34.078Z,12.75
2023-04-11T09:09:34.024Z,12.72
2023-04-11T09:10:34.020Z,12.68
2023-04-11T09:11:33.988Z,12.64
2023-04-11T09:12:34.028Z,12.64
2023-04-11T09:13:33.986Z,12.71
2023-04-11T09:14:34.218Z,12.77
2023-04-11T09:15:33.945Z,12.85
2023-04-11T09:16:33.981Z,12.92
2023-04-11T09:17:33.946Z,13.01
2023-04-11T09:18:33.978Z,13.11
2023-04-11T09:19:33.944Z,13.14
2023-04-11T09:20:33.908Z,13.14
2023-04-11T09:21:33.851Z,13.14
2023-04-11T09:22:33.877Z,13.14
2023-04-11T09:23:33.842Z,13.04
2023-04-11T09:24:35.337Z,13.05
2023-04-11T09:25:33.822Z,13.07
2023-04-11T09:26:33.824Z,13.01
2023-04-11T09:27:33.820Z,12.93
2023-04-11T09:28:33.779Z,12.86
2023-04-11T09:29:33.789Z,12.78
2023-04-11T09:30:33.782Z,12.68
2023-04-11T09:31:33.819Z,12.60
2023-04-11T09:32:33.928Z,12.52
2023-04-11T09:33:33.699Z,12.50
2023-04-11T09:34:33.747Z,12.54
2023-04-11T09:35:33.727Z,12.60
2023-04-11T09:36:33.692Z,12.65
2023-04-11T09:37:33.632Z,12.65
2023-04-11T09:38:33.662Z,12.65
2023-04-11T09:39:33.638Z,12.70
2023-04-11T09:40:33.650Z,12.78
2023-04-11T09:41:33.597Z,12.78
2023-04-11T09:42:33.617Z,12.78
2023-04-11T09:43:33.561Z,12.77
2023-04-11T09:44:33.606Z,12.72
2023-04-11T09:45:40.969Z,12.70
2023-04-11T09:46:33.621Z,12.70
2023-04-11T09:47:33.543Z,12.65
2023-04-11T09:48:46.119Z,12.64
2023-04-11T09:49:33.493Z,12.74
2023-04-11T09:50:33.511Z,12.86
2023-04-11T09:51:37.036Z,12.95
2023-04-11T09:52:33.488Z,13.04
2023-04-11T09:53:33.433Z,13.11
2023-04-11T09:54:33.486Z,13.11
2023-04-11T09:55:33.412Z,13.07
2023-04-11T09:56:33.436Z,13.01
2023-04-11T09:57:33.381Z,12.97
2023-04-11T09:58:33.390Z,12.96
2023-04-11T09:59:33.378Z,12.92
2023-04-11T10:00:33.367Z,12.89
2023-04-11T10:01:33.472Z,12.89
2023-04-11T10:02:33.474Z,12.92
2023-04-11T10:03:33.341Z,12.92
2023-04-11T10:04:33.349Z,12.92
2023-04-11T10:05:33.264Z,12.96
2023-04-11T10:06:33.302Z,13.03
2023-04-11T10:07:33.273Z,13.08
2023-04-11T10:08:33.301Z,13.10
2023-04-11T10:09:33.229Z,13.11
2023-04-11T10:10:33.227Z,13.12
2023-04-11T10:11:33.188Z,13.14
2023-04-11T10:12:33.227Z,13.11
2023-04-11T10:13:33.206Z,13.04
2023-04-11T10:14:33.168Z,12.96
2023-04-11T10:15:33.138Z,12.93
2023-04-11T10:16:33.190Z,12.92
2023-04-11T10:17:33.114Z,12.93
2023-04-11T10:18:33.135Z,12.86
2023-04-11T10:19:33.067Z,12.86
2023-04-11T10:20:33.106Z,12.96
2023-04-11T10:21:33.192Z,13.04
2023-04-11T10:22:33.069Z,13.07
2023-04-11T10:23:33.021Z,13.08
2023-04-11T10:24:33.046Z,13.10
2023-04-11T10:25:33.015Z,13.11
2023-04-11T10:26:33.021Z,13.14
2023-04-11T10:27:32.998Z,13.14
2023-04-11T10:28:32.975Z,13.10
2023-04-11T10:29:32.990Z,13.04
2023-04-11T10:30:32.981Z,13.05
2023-04-11T10:31:32.961Z,13.17
2023-04-11T10:32:32.959Z,13.22
2023-04-11T10:33:32.883Z,13.23
2023-04-11T10:34:32.921Z,13.26
2023-04-11T10:35:32.900Z,13.29
2023-04-11T10:36:32.884Z,13.38
2023-04-11T10:37:32.868Z,13.44
2023-04-11T10:38:32.865Z,13.48
2023-04-11T10:39:32.819Z,13.51
2023-04-11T10:40:32.826Z,13.57
2023-04-11T10:41:32.831Z,13.51
2023-04-11T10:42:32.787Z,13.54
2023-04-11T10:43:32.773Z,13.57
2023-04-11T10:44:32.761Z,13.52
2023-04-11T10:45:32.740Z,13.52
2023-04-11T10:46:32.775Z,13.60
2023-04-11T10:47:32.715Z,13.59
2023-04-11T10:48:32.724Z,13.57
2023-04-11T10:49:32.660Z,13.63
2023-04-11T10:50:32.713Z,13.66
2023-04-11T10:51:32.731Z,13.69
2023-04-11T10:52:32.672Z,13.66
2023-04-11T10:53:32.625Z,13.66
2023-04-11T10:54:32.627Z,13.62
2023-04-11T10:55:32.585Z,13.59
2023-04-11T10:56:32.666Z,13.60
2023-04-11T10:57:32.571Z,13.64
2023-04-11T10:58:32.577Z,13.70
2023-04-11T10:59:32.552Z,13.70
2023-04-11T11:00:32.688Z,13.73
2023-04-11T11:01:42.822Z,13.73
2023-04-11T11:02:32.641Z,13.73
2023-04-11T11:03:32.633Z,13.70
2023-04-11T11:04:32.723Z,13.70
2023-04-11T11:05:32.466Z,13.64
2023-04-11T11:06:32.982Z,13.60
2023-04-11T11:07:32.414Z,13.57
2023-04-11T11:08:32.505Z,13.51
2023-04-11T11:09:32.428Z,13.49
2023-04-11T11:10:32.415Z,13.46
2023-04-11T11:11:32.364Z,13.48
2023-04-11T11:12:32.390Z,13.51
2023-04-11T11:13:32.350Z,13.55
2023-04-11T11:14:32.391Z,13.60
2023-04-11T11:15:32.310Z,13.59
2023-04-11T11:16:32.384Z,13.57
2023-04-11T11:17:32.375Z,13.60
2023-04-11T11:18:32.320Z,13.67
2023-04-11T11:19:32.296Z,13.73
2023-04-11T11:20:32.279Z,13.79
2023-04-11T11:21:32.238Z,13.81
2023-04-11T11:22:32.243Z,13.79
2023-04-11T11:23:32.229Z,13.79
2023-04-11T11:24:32.258Z,13.82
2023-04-11T11:25:32.190Z,13.79
2023-04-11T11:26:32.202Z,13.77
2023-04-11T11:27:32.152Z,13.73
2023-04-11T11:28:32.191Z,13.77
2023-04-11T11:29:32.174Z,13.79
2023-04-11T11:30:32.148Z,13.79
2023-04-11T11:31:32.124Z,13.79
2023-04-11T11:32:32.157Z,13.78
2023-04-11T11:33:32.102Z,13.73
2023-04-11T11:34:32.125Z,13.71
2023-04-11T11:35:32.072Z,13.67
2023-04-11T11:36:32.126Z,13.67
2023-04-11T11:37:32.021Z,13.73
2023-04-11T11:38:32.064Z,13.77
2023-04-11T11:39:32.029Z,13.79
2023-04-11T11:40:32.014Z,13.84
2023-04-11T11:41:31.993Z,13.82
2023-04-11T11:42:31.959Z,13.75
2023-04-11T11:43:31.978Z,13.63
2023-04-11T11:44:31.951Z,13.57
2023-04-11T11:45:31.997Z,13.49
2023-04-11T11:46:31.970Z,13.46
2023-04-11T11:47:31.964Z,13.45
2023-04-11T11:48:31.873Z,13.44
2023-04-11T11:49:31.908Z,13.42
2023-04-11T11:50:31.869Z,13.42
2023-04-11T11:51:31.898Z,13.45
2023-04-11T11:52:31.817Z,13.46
2023-04-11T11:53:31.854Z,13.48
2023-04-11T11:54:31.796Z,13.46
2023-04-11T11:55:31.817Z,13.49
2023-04-11T11:56:31.762Z,13.51
2023-04-11T11:57:31.789Z,13.51
2023-04-11T11:58:31.754Z,13.54
2023-04-11T11:59:31.766Z,13.52
2023-04-11T12:00:31.737Z,13.54
2023-04-11T12:01:31.725Z,13.54
2023-04-11T12:02:31.812Z,13.54
2023-04-11T12:03:31.820Z,13.59
2023-04-11T12:04:31.856Z,13.66
2023-04-11T12:05:31.748Z,13.73
2023-04-11T12:06:31.646Z,13.82
2023-04-11T12:07:31.637Z,13.89
2023-04-11T12:08:31.631Z,13.95
2023-04-11T12:09:31.621Z,13.96
2023-04-11T12:10:31.577Z,13.92
2023-04-11T12:11:31.602Z,13.91
2023-04-11T12:12:31.591Z,13.88
2023-04-11T12:13:31.578Z,13.88
2023-04-11T12:14:31.562Z,13.89
2023-04-11T12:15:31.577Z,13.91
2023-04-11T12:16:31.591Z,13.91
2023-04-11T12:17:31.585Z,13.89
2023-04-11T12:18:31.477Z,13.95
2023-04-11T12:19:31.484Z,13.95
2023-04-11T12:20:31.459Z,13.95
2023-04-11T12:21:31.483Z,13.95
2023-04-11T12:22:31.442Z,13.87
2023-04-11T12:23:31.417Z,13.85
2023-04-11T12:24:31.422Z,13.89
2023-04-11T12:25:31.389Z,13.92
2023-04-11T12:26:31.391Z,13.97
2023-04-11T12:27:31.401Z,14.00
2023-04-11T12:28:31.344Z,14.00
2023-04-11T12:29:31.348Z,13.97
2023-04-11T12:30:31.323Z,13.97
2023-04-11T12:31:31.377Z,13.99
2023-04-11T12:32:31.290Z,14.02
2023-04-11T12:33:31.289Z,14.03
2023-04-11T12:34:31.267Z,14.04
2023-04-11T12:35:31.285Z,14.04
2023-04-11T12:37:31.245Z,14.07
2023-04-11T12:38:31.207Z,14.09
2023-04-11T12:39:31.239Z,14.12
2023-04-11T12:40:31.193Z,14.17
2023-04-11T12:41:32.648Z,14.21
2023-04-11T12:42:31.453Z,14.25
2023-04-11T12:43:31.162Z,14.25
2023-04-11T12:44:31.133Z,14.22
2023-04-11T12:45:31.134Z,14.24
2023-04-11T12:46:31.183Z,14.24
2023-04-11T12:47:31.170Z,14.29
2023-04-11T12:48:31.109Z,14.35
2023-04-11T12:49:31.114Z,14.32
2023-04-11T12:50:31.079Z,14.32
2023-04-11T12:51:31.053Z,14.32
2023-04-11T12:52:31.017Z,14.33
2023-04-11T12:53:31.065Z,14.39
2023-04-11T12:54:31.015Z,14.47
2023-04-11T12:55:31.058Z,14.54